Time;durP1;ratioP1;P1;durP2;ratioP2;P2;SDS_P1;SDS_P2;PMS_P1;PMS_P2;Temp;Humidity;BMP_temperature;BMP_pressure;BME280_temperature;BME280_humidity;BME280_pressure;Samples;Min_cycle;Max_cycle;Signal;HPM_P1;HPM_P2
2022/10/15 00:00:42;;;;;;;4.05;2.03;;;15.10;99.90;;;15.22;100.00;100217.41;5244595;28;20049;-68
2022/10/15 00:03:15;;;;;;;3.58;1.90;;;15.10;99.90;;;15.24;100.00;100214.78;5248088;28;20051;-68
2022/10/15 00:05:47;;;;;;;3.03;1.80;;;15.10;99.90;;;15.23;100.00;100208.66;5231797;28;20043;-69
2022/10/15 00:08:19;;;;;;;3.00;2.15;;;15.10;99.90;;;15.24;100.00;100207.78;5230981;28;20413;-68
2022/10/15 00:10:53;;;;;;;4.35;2.33;;;15.10;99.90;;;15.22;100.00;100204.28;5227664;28;20505;-69
2022/10/15 00:13:25;;;;;;;3.28;2.00;;;15.00;99.90;;;15.22;100.00;100200.78;5242984;28;20037;-69
2022/10/15 00:15:57;;;;;;;3.17;2.00;;;15.10;99.90;;;15.21;100.00;100205.16;5248332;28;20051;-68
2022/10/15 00:18:29;;;;;;;3.45;1.83;;;15.10;99.90;;;15.22;100.00;100200.78;5249096;28;20045;-68
2022/10/15 00:21:01;;;;;;;2.22;1.60;;;15.10;99.90;;;15.23;100.00;100198.16;5248524;28;20465;-69
2022/10/15 00:23:34;;;;;;;1.95;1.40;;;15.00;99.90;;;15.23;100.00;100197.28;5248551;28;20501;-69
2022/10/15 00:26:10;;;;;;;2.70;1.55;;;15.10;99.90;;;15.24;100.00;100199.91;5230515;28;20049;-69
2022/10/15 00:28:43;;;;;;;1.80;1.30;;;15.10;99.90;;;15.25;100.00;100196.41;5249295;28;20047;-69
2022/10/15 00:31:19;;;;;;;2.53;1.50;;;15.00;99.90;;;15.24;100.00;100189.41;5231613;28;20071;-69
2022/10/15 00:33:56;;;;;;;3.53;1.58;;;15.10;99.90;;;15.26;100.00;100190.31;5250473;28;20037;-69
2022/10/15 00:36:30;;;;;;;2.22;1.33;;;15.00;99.90;;;15.26;100.00;100182.44;5231474;28;20547;-69
2022/10/15 00:39:05;;;;;;;2.75;1.60;;;15.10;99.90;;;15.26;100.00;100184.16;5231716;28;20095;-69
2022/10/15 00:41:43;;;;;;;2.22;1.50;;;15.10;99.90;;;15.24;100.00;100173.66;5249164;28;20147;-69
2022/10/15 00:44:49;;;;;;;2.90;1.58;;;15.10;99.90;;;15.25;100.00;100183.28;5249545;28;20033;-69
2022/10/15 00:47:29;;;;;;;4.07;1.40;;;15.10;99.90;;;15.24;100.00;100184.16;5231405;28;20053;-69
2022/10/15 00:50:08;;;;;;;3.50;1.60;;;15.10;99.90;;;15.24;100.00;100181.53;5248331;28;20492;-69
2022/10/15 00:52:48;;;;;;;2.25;1.50;;;15.10;99.90;;;15.22;100.00;100167.53;5248001;28;20507;-69
2022/10/15 00:55:27;;;;;;;2.80;1.60;;;15.00;99.90;;;15.22;100.00;100159.66;5248072;28;20051;-68
2022/10/15 00:58:06;;;;;;;4.03;1.83;;;15.00;99.90;;;15.22;100.00;100170.16;5247996;28;20493;-69
2022/10/15 01:00:38;;;;;;;3.70;1.50;;;15.00;99.90;;;15.22;100.00;100172.78;5247125;28;20105;-69
2022/10/15 01:03:12;;;;;;;2.05;1.30;;;15.10;99.90;;;15.21;100.00;100168.41;5230071;28;20048;-69
2022/10/15 01:05:46;;;;;;;2.15;1.40;;;15.10;99.90;;;15.22;100.00;100174.53;5247620;28;20040;-69
2022/10/15 01:08:20;;;;;;;2.50;1.42;;;15.00;99.90;;;15.19;100.00;100180.63;5247640;28;20500;-69
2022/10/15 01:11:03;;;;;;;2.17;1.30;;;15.00;99.90;;;15.17;100.00;100183.25;5247542;28;20045;-69
2022/10/15 01:13:46;;;;;;;2.20;1.63;;;15.00;99.90;;;15.17;100.00;100179.75;5246391;28;20503;-69
2022/10/15 01:16:25;;;;;;;1.98;1.50;;;15.00;99.90;;;15.16;100.00;100176.25;5229182;28;20417;-69
2022/10/15 01:19:02;;;;;;;4.30;2.20;;;15.00;99.90;;;15.18;100.00;100181.50;5247871;28;20041;-69
2022/10/15 01:21:41;;;;;;;3.47;1.73;;;15.00;99.90;;;15.18;100.00;100184.13;5228966;28;20058;-69
2022/10/15 01:24:49;;;;;;;3.35;1.73;;;15.00;99.90;;;15.19;100.00;100180.63;5247627;28;20041;-69
2022/10/15 01:27:38;;;;;;;3.15;1.83;;;15.00;99.90;;;15.18;100.00;100173.63;5229382;28;20040;-69
2022/10/15 01:30:24;;;;;;;4.00;1.70;;;15.00;99.90;;;15.19;100.00;100185.88;5247490;28;20131;-67
2022/10/15 01:33:22;;;;;;;2.60;1.58;;;15.00;99.90;;;15.20;100.00;100182.41;5246784;28;20040;-68
2022/10/15 01:36:08;;;;;;;3.55;1.73;;;15.00;99.90;;;15.22;100.00;100174.53;5229367;28;20074;-69
2022/10/15 01:38:52;;;;;;;2.65;1.58;;;15.00;99.90;;;15.21;100.00;100184.16;5247711;28;20048;-69
2022/10/15 01:41:31;;;;;;;3.50;1.70;;;15.00;99.90;;;15.21;100.00;100189.41;5246968;28;20139;-69
2022/10/15 01:44:09;;;;;;;2.92;1.70;;;15.00;99.90;;;15.22;100.00;100185.91;5246878;28;20044;-69
2022/10/15 01:46:57;;;;;;;3.05;1.60;;;15.00;99.90;;;15.21;100.00;100186.78;5229083;28;20139;-69
2022/10/15 01:49:35;;;;;;;3.58;1.92;;;15.00;99.90;;;15.22;100.00;100191.16;5246724;28;20040;-69
2022/10/15 01:52:15;;;;;;;3.90;2.00;;;15.00;99.90;;;15.22;100.00;100185.91;5228681;28;20086;-69
2022/10/15 01:54:50;;;;;;;3.08;1.70;;;15.00;99.90;;;15.21;100.00;100186.78;5246822;28;20111;-69
2022/10/15 01:57:26;;;;;;;5.20;2.38;;;15.00;99.90;;;15.22;100.00;100182.41;5246872;28;20040;-68
2022/10/15 01:59:58;;;;;;;4.88;2.40;;;15.00;99.90;;;15.21;100.00;100173.66;5246472;28;20519;-68
2022/10/15 02:02:31;;;;;;;5.20;2.13;;;15.00;99.90;;;15.21;100.00;100173.66;5246758;28;20040;-68
2022/10/15 02:05:06;;;;;;;4.03;1.90;;;15.00;99.90;;;15.19;100.00;100172.75;5228078;28;20040;-69
2022/10/15 02:07:46;;;;;;;;;;;15.10;99.90;;;15.20;100.00;100169.28;5247124;28;20041;-68
2022/10/15 02:10:24;;;;;;;5.70;2.20;;;15.00;99.90;;;15.19;100.00;100170.13;5228420;28;19943;-68
2022/10/15 02:13:08;;;;;;;4.47;1.90;;;15.00;99.90;;;15.19;100.00;100170.13;5228653;28;20048;-69
2022/10/15 02:15:51;;;;;;;5.85;2.53;;;15.00;99.90;;;15.19;100.00;100170.13;5246156;28;20029;-68
2022/10/15 02:18:30;;;;;;;6.00;3.03;;;15.00;99.90;;;15.18;100.00;100165.75;5228108;28;20413;-69
2022/10/15 02:21:10;;;;;;;4.65;2.50;;;15.00;99.90;;;15.17;100.00;100166.63;5245990;28;20036;-69
2022/10/15 02:23:51;;;;;;;5.68;2.83;;;15.00;99.90;;;15.18;100.00;100157.88;5228249;28;20110;-69
2022/10/15 02:26:28;;;;;;;6.22;2.55;;;15.00;99.90;;;15.18;100.00;100166.63;5228209;28;20121;-69
2022/10/15 02:29:03;;;;;;;5.10;2.58;;;15.00;99.90;;;15.19;100.00;100175.38;5246044;28;20498;-69
2022/10/15 02:31:39;;;;;;;3.85;1.95;;;15.00;99.90;;;15.19;100.00;100175.38;5245758;28;20036;-69
2022/10/15 02:34:19;;;;;;;5.50;2.50;;;15.00;99.90;;;15.18;100.00;100176.25;5245889;28;20570;-69
2022/10/15 02:36:53;;;;;;;5.63;2.65;;;15.00;99.90;;;15.19;100.00;100172.75;5228349;28;20043;-68
2022/10/15 02:39:26;;;;;;;4.07;2.25;;;15.00;99.90;;;15.19;100.00;100180.63;5246154;28;20041;-69
2022/10/15 02:41:58;;;;;;;4.78;2.10;;;15.00;99.90;;;15.19;100.00;100176.28;5227542;28;20114;-69
2022/10/15 02:44:31;;;;;;;3.75;2.05;;;15.00;99.90;;;15.19;100.00;100178.91;5227762;28;20061;-69
2022/10/15 02:47:03;;;;;;;4.35;2.00;;;15.00;99.90;;;15.20;100.00;100177.16;5227851;28;20100;-68
2022/10/15 02:49:37;;;;;;;3.55;2.25;;;15.00;99.90;;;15.20;100.00;100177.16;5227968;28;20052;-69
2022/10/15 02:52:09;;;;;;;3.88;2.13;;;15.00;99.90;;;15.19;100.00;100171.03;5227498;28;20055;-69
2022/10/15 02:54:41;;;;;;;3.40;1.80;;;15.00;99.90;;;15.19;100.00;100171.03;5227638;28;20056;-69
2022/10/15 02:57:13;;;;;;;3.58;2.08;;;15.00;99.90;;;15.19;100.00;100175.38;5227357;28;20112;-69
2022/10/15 02:59:48;;;;;;;;;;;15.00;99.90;;;15.17;100.00;100175.38;5227644;28;20049;-69
2022/10/15 03:02:20;;;;;;;3.65;2.25;;;15.00;99.90;;;15.18;100.00;100184.13;5244168;28;20365;-69
2022/10/15 03:04:54;;;;;;;3.88;2.15;;;15.00;99.90;;;15.18;100.00;100171.00;5302479;22;21353;-70
2022/10/15 03:07:29;;;;;;;3.38;2.00;;;15.00;99.90;;;15.19;100.00;100172.75;5233460;28;20044;-70
2022/10/15 03:10:02;;;;;;;2.83;1.70;;;15.00;99.90;;;15.18;100.00;100177.13;5245054;28;20106;-70
2022/10/15 03:12:35;;;;;;;3.75;2.00;;;15.00;99.90;;;15.19;100.00;100172.75;5230901;28;20041;-70
2022/10/15 03:15:08;;;;;;;3.40;1.75;;;15.00;99.90;;;15.19;100.00;100175.38;5224393;28;20785;-70
2022/10/15 03:17:41;;;;;;;2.90;1.52;;;15.00;99.90;;;15.20;100.00;100171.91;5224872;28;20041;-70
2022/10/15 03:20:16;;;;;;;2.65;1.60;;;15.00;99.90;;;15.20;100.00;100169.28;5224028;28;20045;-70
2022/10/15 03:22:48;;;;;;;2.40;1.50;;;15.00;99.90;;;15.19;100.00;100167.50;5224610;28;20044;-70
2022/10/15 03:25:22;;;;;;;2.90;1.80;;;15.00;99.90;;;15.18;100.00;100169.25;5223165;28;20428;-70
2022/10/15 03:28:03;;;;;;;2.70;1.85;;;15.00;99.90;;;15.18;100.00;100168.38;5223136;28;20433;-70
2022/10/15 03:30:45;;;;;;;2.78;1.40;;;15.00;99.90;;;15.16;100.00;100163.13;5224338;28;20060;-70
2022/10/15 03:33:17;;;;;;;2.33;1.50;;;15.00;99.90;;;15.15;100.00;100163.97;5222943;28;20139;-70
2022/10/15 03:35:52;;;;;;;3.55;1.70;;;15.00;99.90;;;15.15;100.00;100168.38;5222491;28;20045;-70
2022/10/15 03:38:26;;;;;;;3.17;1.80;;;15.00;99.90;;;15.12;100.00;100166.56;5222769;28;20037;-70
2022/10/15 03:41:00;;;;;;;1.95;1.30;;;14.90;99.90;;;15.12;100.00;100163.06;5222503;28;20072;-70
2022/10/15 03:43:46;;;;;;;2.40;1.58;;;14.90;99.90;;;15.10;100.00;100170.94;5222915;28;20122;-70
2022/10/15 03:46:20;;;;;;;2.90;1.40;;;15.00;99.90;;;15.09;100.00;100178.81;5222588;28;20047;-70
2022/10/15 03:48:54;;;;;;;2.78;1.80;;;14.90;99.90;;;15.09;100.00;100169.19;5223119;28;20556;-72
2022/10/15 03:51:28;;;;;;;2.33;1.67;;;14.90;99.90;;;15.10;100.00;100167.44;5223879;28;20551;-70
2022/10/15 03:54:09;;;;;;;3.03;1.60;;;14.90;99.90;;;15.09;100.00;100169.19;5223206;28;20514;-70
2022/10/15 03:56:49;;;;;;;2.83;1.70;;;14.90;99.90;;;15.09;100.00;100165.69;5222857;28;20068;-70
2022/10/15 03:59:29;;;;;;;4.03;2.00;;;14.90;99.90;;;15.09;100.00;100166.56;5224220;28;20045;-70
2022/10/15 04:02:04;;;;;;;3.25;1.85;;;14.90;99.90;;;15.09;100.00;100173.56;5222661;28;20045;-70
2022/10/15 04:04:37;;;;;;;3.60;1.80;;;14.90;99.90;;;15.08;100.00;100177.06;5223039;28;20045;-70
2022/10/15 04:07:11;;;;;;;2.90;1.90;;;14.90;99.90;;;15.08;100.00;100177.94;5222565;28;20045;-70
2022/10/15 04:09:43;;;;;;;3.08;1.92;;;14.90;99.90;;;15.09;100.00;100178.81;5222279;28;20045;-69
2022/10/15 04:12:32;;;;;;;6.15;2.58;;;14.90;99.90;;;15.08;100.00;100185.81;5222728;28;20580;-70
2022/10/15 04:15:05;;;;;;;3.75;2.45;;;14.90;99.90;;;15.07;100.00;100180.56;5222519;28;20387;-70
2022/10/15 04:17:37;;;;;;;4.07;2.33;;;14.90;99.90;;;15.07;100.00;100183.19;5222630;28;20479;-70
2022/10/15 04:20:11;;;;;;;5.57;2.50;;;14.90;99.90;;;15.07;100.00;100191.06;5222435;28;20048;-70
2022/10/15 04:22:44;;;;;;;3.63;2.00;;;14.90;99.90;;;15.06;100.00;100186.66;5222635;28;20072;-70
2022/10/15 04:25:18;;;;;;;4.75;1.90;;;14.90;99.90;;;15.06;100.00;100176.16;5222301;28;20052;-70
2022/10/15 04:27:52;;;;;;;4.50;2.03;;;14.90;99.90;;;15.07;100.00;100170.06;5222309;28;20099;-70
2022/10/15 04:30:24;;;;;;;4.82;2.60;;;14.90;99.90;;;15.05;100.00;100158.66;5222202;28;20076;-70
2022/10/15 04:33:03;;;;;;;3.58;2.28;;;14.90;99.90;;;15.04;100.00;100149.03;5223640;28;20068;-70
2022/10/15 04:35:35;;;;;;;2.78;1.73;;;14.90;99.90;;;15.01;100.00;100155.16;5223821;28;20041;-70
2022/10/15 04:38:16;;;;;;;6.32;2.72;;;14.90;99.90;;;14.99;100.00;100161.25;5222499;28;20671;-70
2022/10/15 04:41:11;;;;;;;4.30;2.28;;;14.80;99.90;;;14.97;100.00;100150.75;5222539;28;20068;-70
2022/10/15 04:44:13;;;;;;;4.90;2.13;;;14.80;99.90;;;14.95;100.00;100149.84;5210600;28;20502;-70
2022/10/15 04:46:51;;;;;;;3.67;2.10;;;14.80;99.90;;;14.95;100.00;100156.84;5222269;28;20140;-70
2022/10/15 04:49:49;;;;;;;3.20;1.58;;;14.80;99.90;;;14.93;100.00;100162.97;5224022;28;20049;-70
2022/10/15 04:53:00;;;;;;;2.30;1.58;;;14.80;99.90;;;14.92;100.00;100169.06;5227130;28;20049;-66
2022/10/15 04:55:36;;;;;;;2.28;1.52;;;14.80;99.90;;;14.94;100.00;100174.34;5225825;28;20509;-69
2022/10/15 04:58:08;;;;;;;3.15;1.83;;;14.80;99.90;;;14.93;100.00;100169.94;5226314;28;20041;-70
2022/10/15 05:00:40;;;;;;;3.50;1.92;;;14.80;99.90;;;14.92;100.00;100171.69;5226969;28;20053;-70
2022/10/15 05:03:32;;;;;;;3.47;2.20;;;14.80;99.90;;;14.92;100.00;100176.06;5225860;28;20515;-70
2022/10/15 05:06:12;;;;;;;2.65;1.95;;;14.80;99.90;;;14.93;100.00;100178.72;5226957;28;20511;-70
2022/10/15 05:08:45;;;;;;;3.72;1.80;;;14.80;99.90;;;14.93;100.00;100178.72;5225551;28;20432;-71
2022/10/15 05:11:27;;;;;;;2.83;1.48;;;14.80;99.90;;;14.95;100.00;100183.97;5225244;28;20102;-70
2022/10/15 05:14:00;;;;;;;1.45;1.13;;;14.80;99.90;;;14.95;100.00;100180.47;5225692;28;20140;-70
2022/10/15 05:16:34;;;;;;;2.80;1.45;;;14.80;99.90;;;14.93;100.00;100172.56;5225385;28;20049;-70
2022/10/15 05:19:08;;;;;;;3.97;1.90;;;14.80;99.90;;;14.93;100.00;100178.72;5225668;28;20049;-70
2022/10/15 05:21:42;;;;;;;4.20;1.73;;;14.80;99.90;;;14.90;100.00;100189.19;5225485;28;20052;-70
2022/10/15 05:24:25;;;;;;;2.75;1.58;;;14.80;99.90;;;14.90;100.00;100181.31;5225933;28;20106;-70
2022/10/15 05:27:05;;;;;;;2.60;1.42;;;14.80;99.90;;;14.90;100.00;100183.94;5225307;28;20049;-70
2022/10/15 05:29:39;;;;;;;2.70;1.73;;;14.70;99.90;;;14.90;100.00;100177.81;5226592;28;20044;-70
2022/10/15 05:32:11;;;;;;;4.55;1.85;;;14.80;99.90;;;14.88;100.00;100188.28;5226382;28;20087;-70
2022/10/15 05:34:45;;;;;;;4.60;2.20;;;14.70;99.90;;;14.87;100.00;100194.41;5225201;28;20061;-70
2022/10/15 05:37:20;;;;;;;2.65;1.50;;;14.70;99.90;;;14.86;100.00;100190.00;5226708;28;20071;-71
2022/10/15 05:39:54;;;;;;;2.35;1.40;;;14.70;99.90;;;14.88;100.00;100188.28;5224779;28;20041;-70
2022/10/15 05:42:27;;;;;;;3.38;1.77;;;14.70;99.90;;;14.88;100.00;100196.16;5225026;28;20145;-70
2022/10/15 05:45:03;;;;;;;6.20;3.70;;;14.70;99.90;;;14.88;100.00;100190.91;5224896;28;20444;-70
2022/10/15 05:47:35;;;;;;;7.70;4.38;;;14.80;99.90;;;14.89;100.00;100189.19;5224922;28;20056;-70
2022/10/15 05:50:23;;;;;;;5.38;3.20;;;14.80;99.90;;;14.88;100.00;100198.78;5224846;28;20041;-69
2022/10/15 05:52:56;;;;;;;5.00;3.20;;;14.70;99.90;;;14.89;100.00;100190.06;5224598;28;20074;-70
2022/10/15 05:55:43;;;;;;;4.85;3.28;;;14.80;99.90;;;14.88;100.00;100196.16;5224838;28;20040;-69
2022/10/15 05:58:18;;;;;;;5.32;3.47;;;14.80;99.90;;;14.87;100.00;100183.94;5226141;28;20417;-69
2022/10/15 06:00:54;;;;;;;4.50;2.50;;;14.70;99.90;;;14.86;100.00;100186.50;5224515;28;20090;-70
2022/10/15 06:03:28;;;;;;;3.72;2.45;;;14.70;99.90;;;14.85;100.00;100184.75;5225537;28;20049;-64
2022/10/15 06:06:00;;;;;;;4.53;2.38;;;14.70;99.90;;;14.84;100.00;100189.13;5225202;28;20098;-59
2022/10/15 06:08:35;;;;;;;3.60;2.58;;;14.70;99.90;;;14.86;100.00;100199.63;5224460;28;20460;-60
2022/10/15 06:11:07;;;;;;;3.38;2.00;;;14.70;99.90;;;14.86;100.00;100197.00;5225283;28;20044;-59
2022/10/15 06:13:42;;;;;;;3.90;2.55;;;14.70;99.90;;;14.84;100.00;100199.63;5225565;28;20045;-59
2022/10/15 06:16:16;;;;;;;3.50;2.03;;;14.70;99.90;;;14.83;100.00;100197.88;5225805;28;20481;-59
2022/10/15 06:18:48;;;;;;;3.33;2.05;;;14.70;99.90;;;14.82;100.00;100190.88;5225407;28;20053;-59
2022/10/15 06:21:20;;;;;;;5.50;2.67;;;14.70;99.90;;;14.80;100.00;100203.09;5225118;28;20052;-59
2022/10/15 06:23:53;;;;;;;8.48;3.60;;;14.70;99.90;;;14.81;100.00;100199.63;5225285;28;20076;-59
2022/10/15 06:26:25;;;;;;;11.05;4.53;;;14.70;99.90;;;14.82;100.00;100201.38;5225206;28;20494;-59
2022/10/15 06:28:58;;;;;;;8.45;3.55;;;14.70;99.90;;;14.83;100.00;100200.50;5225534;28;20051;-59
2022/10/15 06:31:31;;;;;;;6.80;3.30;;;14.70;99.90;;;14.84;100.00;100207.50;5225133;28;20122;-59
2022/10/15 06:34:03;;;;;;;11.38;5.63;;;14.70;99.90;;;14.83;100.00;100208.38;5225218;28;20048;-60
2022/10/15 06:36:35;;;;;;;6.30;3.47;;;14.70;99.90;;;14.84;100.00;100209.25;5225116;28;20048;-60
2022/10/15 06:39:08;;;;;;;7.82;4.10;;;14.70;99.90;;;14.83;100.00;100213.63;5224899;28;20056;-59
2022/10/15 06:41:40;;;;;;;7.28;3.78;;;14.70;99.90;;;14.83;100.00;100200.50;5224668;28;20051;-59
2022/10/15 06:44:13;;;;;;;5.97;3.25;;;14.70;99.90;;;14.87;100.00;100204.91;5225326;28;20124;-59
2022/10/15 06:46:45;;;;;;;7.10;3.25;;;14.70;99.90;;;14.97;100.00;100215.47;5224954;28;20512;-60
2022/10/15 06:49:17;;;;;;;6.25;2.92;;;14.80;99.90;;;15.06;100.00;100220.78;5224906;28;20059;-59
2022/10/15 06:51:49;;;;;;;3.95;2.30;;;14.80;99.90;;;15.16;100.00;100222.63;5224803;28;20045;-60
2022/10/15 06:54:21;;;;;;;4.10;2.35;;;14.90;99.90;;;15.45;100.00;100215.81;5224943;28;20071;-60
2022/10/15 06:56:53;;;;;;;7.50;2.78;;;15.10;99.90;;;15.85;100.00;100226.56;5224938;28;20444;-59
2022/10/15 06:59:27;;;;;;;3.30;1.75;;;15.40;99.90;;;15.88;100.00;100221.31;5224946;28;20048;-60
2022/10/15 07:02:00;;;;;;;3.63;2.35;;;15.50;99.90;;;15.82;100.00;100223.03;5224191;28;20417;-59
2022/10/15 07:04:32;;;;;;;3.22;1.85;;;15.60;99.90;;;15.72;100.00;100230.88;5224658;28;20068;-60
2022/10/15 07:07:04;;;;;;;3.08;1.90;;;15.50;99.90;;;15.64;100.00;100219.44;5224638;28;20068;-59
2022/10/15 07:09:36;;;;;;;3.80;2.58;;;15.50;99.90;;;15.57;100.00;100222.00;5224630;28;20437;-60
2022/10/15 07:12:08;;;;;;;3.90;2.22;;;15.40;99.90;;;15.51;100.00;100224.56;5224296;28;20060;-60
2022/10/15 07:14:42;;;;;;;3.53;2.45;;;15.30;99.90;;;15.48;100.00;100226.31;5224609;28;20474;-60
2022/10/15 07:17:15;;;;;;;2.65;1.80;;;15.30;99.90;;;15.49;100.00;100232.47;5224637;28;20071;-60
2022/10/15 07:19:47;;;;;;;5.55;2.83;;;15.30;99.90;;;15.43;100.00;100233.28;5224030;28;20045;-59
2022/10/15 07:22:19;;;;;;;3.90;2.40;;;15.30;99.90;;;15.43;100.00;100235.03;5224284;28;20045;-60
2022/10/15 07:24:51;;;;;;;4.38;3.05;;;15.30;99.90;;;15.45;100.00;100231.59;5224241;28;20401;-60
2022/10/15 07:27:23;;;;;;;5.40;3.00;;;15.30;99.90;;;15.50;100.00;100239.47;5222928;28;20068;-59
2022/10/15 07:29:58;;;;;;;4.55;2.15;;;15.30;99.90;;;15.59;100.00;100236.03;5224124;28;20055;-60
2022/10/15 07:32:30;;;;;;;4.95;2.70;;;15.40;99.90;;;15.63;100.00;100227.31;5224464;28;20520;-60
2022/10/15 07:35:03;;;;;;;3.85;2.60;;;15.50;99.90;;;15.66;100.00;100224.72;5224408;28;20041;-60
2022/10/15 07:37:36;;;;;;;4.93;2.33;;;15.50;99.90;;;15.69;100.00;100224.72;5224416;28;20072;-60
2022/10/15 07:40:09;;;;;;;4.53;2.38;;;15.50;99.90;;;15.73;100.00;100229.13;5222476;28;20056;-60
2022/10/15 07:42:42;;;;;;;4.18;2.33;;;15.60;99.90;;;15.81;100.00;100230.03;5224100;28;20041;-60
2022/10/15 07:45:16;;;;;;;2.70;1.90;;;15.60;99.90;;;15.98;100.00;100228.38;5224192;28;20055;-60
2022/10/15 07:47:48;;;;;;;3.78;2.40;;;15.70;99.90;;;16.17;100.00;100217.88;5222626;28;20421;-60
2022/10/15 07:50:21;;;;;;;3.67;2.33;;;15.80;99.90;;;16.49;100.00;100216.19;5223948;28;20068;-60
2022/10/15 07:52:53;;;;;;;2.90;1.92;;;16.00;99.90;;;17.06;100.00;100227.69;5223296;28;20045;-60
2022/10/15 07:55:25;;;;;;;2.22;1.70;;;16.40;99.90;;;17.29;100.00;100221.53;5224044;28;20044;-60
2022/10/15 07:57:58;;;;;;;1.77;1.42;;;16.60;99.90;;;17.32;100.00;100226.78;5224294;28;20045;-58
2022/10/15 08:00:32;;;;;;;1.77;1.05;;;16.80;99.90;;;17.36;100.00;100223.25;5223639;28;20056;-59
2022/10/15 08:03:04;;;;;;;2.67;1.60;;;16.90;99.90;;;17.37;100.00;100217.13;5223879;28;20387;-58
2022/10/15 08:05:36;;;;;;;1.25;1.02;;;16.90;99.90;;;17.33;100.00;100224.13;5224015;28;20072;-58
2022/10/15 08:08:08;;;;;;;1.63;1.15;;;16.90;99.90;;;17.35;100.00;100221.53;5220086;28;20056;-58
2022/10/15 08:10:40;;;;;;;2.45;1.20;;;17.00;99.90;;;17.34;100.00;100206.56;5223156;28;20052;-59
2022/10/15 08:13:13;;;;;;;2.50;1.05;;;16.90;99.90;;;17.34;100.00;100215.38;5219807;28;20513;-57
2022/10/15 08:15:49;;;;;;;2.28;1.15;;;17.00;99.90;;;17.29;100.00;100206.59;5224147;28;20133;-58
2022/10/15 08:18:21;;;;;;;1.17;0.90;;;17.00;99.90;;;17.28;100.00;100203.97;5222867;28;20056;-58
2022/10/15 08:20:53;;;;;;;2.63;1.00;;;17.00;99.90;;;17.29;100.00;100201.34;5223424;28;20071;-59
2022/10/15 08:23:25;;;;;;;1.20;1.00;;;17.00;99.90;;;17.61;100.00;100209.16;5227144;28;20044;-58
2022/10/15 08:25:59;;;;;;;1.15;0.88;;;17.10;99.90;;;17.87;100.00;100190.63;5229296;28;20079;-57
2022/10/15 08:28:33;;;;;;;1.48;1.02;;;17.40;99.90;;;17.87;100.00;100197.66;5227474;28;20052;-58
2022/10/15 08:31:06;;;;;;;1.10;0.90;;;17.40;99.90;;;17.79;100.00;100197.69;5225318;28;20072;-58
2022/10/15 08:33:39;;;;;;;0.88;0.70;;;17.40;99.90;;;17.69;100.00;100201.22;5226093;28;20037;-58
2022/10/15 08:36:11;;;;;;;2.42;1.08;;;17.40;99.90;;;17.58;100.00;100203.88;5227361;28;20398;-58
2022/10/15 08:38:43;;;;;;;2.20;1.00;;;17.30;99.90;;;17.44;100.00;100192.50;5225584;28;20059;-58
2022/10/15 08:41:26;;;;;;;1.67;0.90;;;17.20;99.90;;;17.33;100.00;100197.78;5221949;28;20037;-58
2022/10/15 08:43:59;;;;;;;1.83;0.90;;;17.10;99.90;;;17.24;100.00;100196.94;5225519;28;20055;-57
2022/10/15 08:46:37;;;;;;;1.63;0.90;;;17.00;99.90;;;17.21;100.00;100204.84;5226925;28;20049;-56
2022/10/15 08:49:33;;;;;;;1.85;0.82;;;17.00;99.90;;;17.23;100.00;100197.84;5224540;28;20049;-57
2022/10/15 08:52:17;;;;;;;1.65;0.80;;;17.00;99.90;;;17.22;100.00;100193.44;5225564;28;20056;-57
2022/10/15 08:54:49;;;;;;;1.10;0.70;;;17.00;99.90;;;17.19;100.00;100193.44;5227188;28;20056;-58
2022/10/15 08:57:38;;;;;;;0.98;0.63;;;17.00;99.90;;;17.13;100.00;100194.31;5227228;28;20123;-59
2022/10/15 09:00:18;;;;;;;1.27;0.90;;;16.90;99.90;;;17.09;100.00;100190.84;5226711;28;20073;-58
2022/10/15 09:03:01;;;;;;;1.08;0.73;;;16.90;99.90;;;17.09;100.00;100185.56;5227170;28;20069;-60
2022/10/15 09:05:43;;;;;;;2.10;0.80;;;16.90;99.90;;;17.15;100.00;100186.41;5263478;22;20044;-81
2022/10/15 09:08:27;;;;;;;1.63;0.80;;;16.90;99.90;;;17.15;100.00;100189.94;5270431;28;20048;-81
2022/10/15 09:11:04;;;;;;;1.52;0.75;;;16.90;99.90;;;17.23;100.00;100190.81;5267224;28;20040;-81
2022/10/15 09:13:41;;;;;;;1.17;0.70;;;17.00;99.90;;;17.23;100.00;100195.19;5273719;28;20052;-81
2022/10/15 09:16:16;;;;;;;1.00;0.80;;;17.00;99.90;;;17.33;100.00;100202.19;5261833;28;20053;-81
2022/10/15 09:18:52;;;;;;;1.10;1.00;;;17.00;99.90;;;17.34;100.00;100191.66;5251238;28;20391;-82
2022/10/15 09:21:25;;;;;;;2.08;0.70;;;17.00;99.90;;;17.23;100.00;100184.66;5251737;28;20044;-81
2022/10/15 09:24:02;;;;;;;1.25;0.82;;;17.00;99.90;;;17.13;100.00;100181.16;5251824;28;20040;-80
2022/10/15 09:26:50;;;;;;;2.67;1.27;;;17.00;99.90;;;17.10;100.00;100183.81;5251660;28;20380;-81
2022/10/15 09:29:28;;;;;;;1.98;0.70;;;17.00;99.90;;;17.18;100.00;100176.75;5251023;28;20051;-80
2022/10/15 09:32:12;;;;;;;1.42;0.77;;;17.00;99.90;;;17.33;100.00;100187.25;5251706;28;20045;-80
2022/10/15 09:34:51;;;;;;;2.33;1.10;;;17.10;99.90;;;17.33;100.00;100186.38;5239721;28;20060;-80
2022/10/15 09:37:29;;;;;;;1.30;0.80;;;17.10;99.90;;;17.50;100.00;100189.84;5259338;28;20044;-82
2022/10/15 09:40:30;;;;;;;1.45;0.80;;;17.20;99.90;;;17.62;100.00;100184.56;5247324;28;20040;-80
2022/10/15 09:43:04;;;;;;;0.80;0.70;;;17.30;99.90;;;17.70;100.00;100183.63;5246258;28;20056;-82
2022/10/15 09:45:36;;;;;;;2.05;1.00;;;17.40;99.90;;;17.70;100.00;100175.72;5253381;28;20521;-82
2022/10/15 09:48:17;;;;;;;0.80;0.70;;;17.40;99.90;;;17.74;100.00;100177.53;5247291;28;20036;-81
2022/10/15 09:51:00;;;;;;;1.00;0.77;;;17.40;99.90;;;17.79;100.00;100175.72;5249119;28;20045;-82
2022/10/15 09:53:47;;;;;;;1.38;0.80;;;17.50;99.90;;;17.83;100.00;100177.47;5251734;28;20056;-81
2022/10/15 09:56:24;;;;;;;0.68;0.60;;;17.50;99.90;;;17.90;100.00;100176.56;5254001;28;20052;-80
2022/10/15 09:58:58;;;;;;;1.10;0.88;;;17.60;99.90;;;18.01;100.00;100173.88;5256957;28;20048;-82
2022/10/15 10:01:32;;;;;;;0.85;0.70;;;17.60;99.90;;;18.03;100.00;100165.06;5249938;28;20482;-81
2022/10/15 10:04:14;;;;;;;2.92;0.60;;;17.70;99.90;;;18.12;100.00;100170.25;5251706;28;20044;-81
2022/10/15 10:06:52;;;;;;;1.63;0.50;;;17.80;99.90;;;18.15;100.00;100165.00;5251020;28;20040;-81
2022/10/15 10:09:30;;;;;;;0.55;0.50;;;17.80;99.90;;;18.11;100.00;100173.78;5249045;28;20044;-82
2022/10/15 10:12:08;;;;;;;1.08;0.40;;;17.80;99.90;;;18.10;100.00;100161.50;5245936;28;20103;-82
2022/10/15 10:14:47;;;;;;;0.50;0.40;;;17.80;99.90;;;18.14;100.00;100157.09;5245930;28;20514;-83
2022/10/15 10:17:22;;;;;;;0.52;0.30;;;17.80;99.90;;;18.21;100.00;100148.25;5249983;28;20131;-82
2022/10/15 10:20:17;;;;;;;0.73;0.60;;;17.90;99.90;;;18.36;100.00;100147.25;5232295;28;20518;-78
2022/10/15 10:22:53;;;;;;;1.13;0.55;;;18.00;99.90;;;18.67;100.00;100147.94;5249051;28;20505;-80
2022/10/15 10:25:38;;;;;;;1.15;0.50;;;18.20;99.90;;;19.01;100.00;100145.84;5250845;28;20040;-83
2022/10/15 10:28:22;;;;;;;0.85;0.50;;;18.50;99.90;;;19.30;100.00;100145.56;5268867;28;20044;-84
2022/10/15 10:31:04;;;;;;;1.25;0.50;;;18.70;99.90;;;19.54;100.00;100149.69;5248446;28;20048;-76
2022/10/15 10:33:43;;;;;;;1.42;0.40;;;19.00;99.90;;;19.67;100.00;100151.31;5246292;28;20556;-80
2022/10/15 10:36:27;;;;;;;0.77;0.47;;;19.10;99.90;;;19.85;100.00;100159.91;5249324;28;20055;-82
2022/10/15 10:39:14;;;;;;;0.82;0.50;;;19.30;99.90;;;19.81;100.00;100144.97;5254301;28;20067;-83
2022/10/15 10:41:50;;;;;;;1.05;0.50;;;19.30;99.90;;;19.76;100.00;100156.50;5251331;28;20036;-80
2022/10/15 10:44:28;;;;;;;0.88;0.68;;;19.40;99.90;;;19.81;100.00;100143.19;5248279;28;20044;-78